sensor_id;sensor_type;location;lat;lon;timestamp;pressure;altitude;pressure_sealevel;temperature;humidity
22580;BME280;11456;47.030;15.396;2023-10-09T00:02:12;98612.13;;;12.33;100.00
22580;BME280;11456;47.030;15.396;2023-10-09T00:04:41;98607.84;;;12.21;100.00
22580;BME280;11456;47.030;15.396;2023-10-09T00:07:10;98612.50;;;12.10;100.00
22580;BME280;11456;47.030;15.396;2023-10-09T00:09:38;98615.91;;;12.12;100.00
22580;BME280;11456;47.030;15.396;2023-10-09T00:12:23;98622.00;;;12.04;100.00
22580;BME280;11456;47.030;15.396;2023-10-09T00:14:52;98633.03;;;11.91;100.00
22580;BME280;11456;47.030;15.396;2023-10-09T00:17:23;98627.38;;;11.94;100.00
22580;BME280;11456;47.030;15.396;2023-10-09T00:19:51;98607.13;;;11.79;100.00
22580;BME280;11456;47.030;15.396;2023-10-09T00:22:19;98595.50;;;11.79;100.00
22580;BME280;11456;47.030;15.396;2023-10-09T00:24:58;98563.25;;;11.77;100.00
22580;BME280;11456;47.030;15.396;2023-10-09T00:27:43;98551.75;;;11.75;100.00
22580;BME280;11456;47.030;15.396;2023-10-09T00:30:14;98535.78;;;11.72;100.00
22580;BME280;11456;47.030;15.396;2023-10-09T00:32:56;98545.50;;;11.84;100.00
22580;BME280;11456;47.030;15.396;2023-10-09T00:35:30;98547.13;;;11.66;100.00
22580;BME280;11456;47.030;15.396;2023-10-09T00:38:04;98541.47;;;11.69;100.00
22580;BME280;11456;47.030;15.396;2023-10-09T00:40:48;98548.06;;;11.76;100.00
22580;BME280;11456;47.030;15.396;2023-10-09T00:43:24;98551.78;;;11.94;100.00
22580;BME280;11456;47.030;15.396;2023-10-09T00:45:56;98548.34;;;11.83;100.00
22580;BME280;11456;47.030;15.396;2023-10-09T00:48:26;98554.34;;;12.05;100.00
22580;BME280;11456;47.030;15.396;2023-10-09T00:51:04;98530.47;;;12.11;100.00
22580;BME280;11456;47.030;15.396;2023-10-09T00:53:44;98511.72;;;11.99;100.00
22580;BME280;11456;47.030;15.396;2023-10-09T00:56:15;98517.16;;;12.28;100.00
22580;BME280;11456;47.030;15.396;2023-10-09T00:58:59;98514.16;;;12.22;100.00
22580;BME280;11456;47.030;15.396;2023-10-09T01:01:36;98497.25;;;12.39;100.00
22580;BME280;11456;47.030;15.396;2023-10-09T01:04:07;98488.72;;;12.34;100.00
22580;BME280;11456;47.030;15.396;2023-10-09T01:06:38;98476.94;;;12.16;100.00
22580;BME280;11456;47.030;15.396;2023-10-09T01:09:14;98483.88;;;12.28;100.00
22580;BME280;11456;47.030;15.396;2023-10-09T01:11:43;98474.50;;;12.32;100.00
22580;BME280;11456;47.030;15.396;2023-10-09T01:14:33;98485.16;;;12.24;100.00
22580;BME280;11456;47.030;15.396;2023-10-09T01:17:06;98489.28;;;12.37;100.00
22580;BME280;11456;47.030;15.396;2023-10-09T01:19:36;98489.69;;;12.52;100.00
22580;BME280;11456;47.030;15.396;2023-10-09T01:22:03;98495.94;;;12.72;100.00
22580;BME280;11456;47.030;15.396;2023-10-09T01:24:40;98483.88;;;12.47;100.00
22580;BME280;11456;47.030;15.396;2023-10-09T01:27:07;98481.59;;;12.52;100.00
22580;BME280;11456;47.030;15.396;2023-10-09T01:29:42;98483.25;;;12.72;100.00
22580;BME280;11456;47.030;15.396;2023-10-09T01:32:10;98476.88;;;12.73;100.00
22580;BME280;11456;47.030;15.396;2023-10-09T01:34:44;98474.38;;;12.90;100.00
22580;BME280;11456;47.030;15.396;2023-10-09T01:37:19;98462.09;;;13.05;100.00
22580;BME280;11456;47.030;15.396;2023-10-09T01:39:50;98474.59;;;13.06;100.00
22580;BME280;11456;47.030;15.396;2023-10-09T01:42:19;98463.19;;;13.21;100.00
22580;BME280;11456;47.030;15.396;2023-10-09T01:45:11;98452.09;;;13.24;100.00
22580;BME280;11456;47.030;15.396;2023-10-09T01:47:59;98443.53;;;13.56;100.00
22580;BME280;11456;47.030;15.396;2023-10-09T01:50:33;98433.19;;;13.15;100.00
22580;BME280;11456;47.030;15.396;2023-10-09T01:53:02;98429.25;;;13.37;100.00
22580;BME280;11456;47.030;15.396;2023-10-09T01:55:30;98426.03;;;13.23;100.00
22580;BME280;11456;47.030;15.396;2023-10-09T01:58:09;98436.47;;;13.09;100.00
22580;BME280;11456;47.030;15.396;2023-10-09T02:00:51;98435.00;;;13.24;100.00
22580;BME280;11456;47.030;15.396;2023-10-09T02:03:28;98423.75;;;13.19;100.00
22580;BME280;11456;47.030;15.396;2023-10-09T02:05:56;98419.53;;;13.16;100.00
22580;BME280;11456;47.030;15.396;2023-10-09T02:08:44;98423.59;;;13.30;100.00
22580;BME280;11456;47.030;15.396;2023-10-09T02:11:16;98414.75;;;13.28;100.00
22580;BME280;11456;47.030;15.396;2023-10-09T02:13:51;98405.38;;;13.50;100.00
22580;BME280;11456;47.030;15.396;2023-10-09T02:16:27;98403.66;;;13.31;100.00
22580;BME280;11456;47.030;15.396;2023-10-09T02:19:08;98406.25;;;13.23;100.00
22580;BME280;11456;47.030;15.396;2023-10-09T02:21:55;98409.56;;;13.07;100.00
22580;BME280;11456;47.030;15.396;2023-10-09T02:24:24;98415.97;;;13.16;100.00
22580;BME280;11456;47.030;15.396;2023-10-09T02:27:13;98411.69;;;13.13;100.00
22580;BME280;11456;47.030;15.396;2023-10-09T02:29:46;98406.84;;;13.17;100.00
22580;BME280;11456;47.030;15.396;2023-10-09T02:32:13;98413.66;;;13.21;100.00
22580;BME280;11456;47.030;15.396;2023-10-09T02:34:42;98409.34;;;13.28;100.00
22580;BME280;11456;47.030;15.396;2023-10-09T02:37:13;98407.88;;;13.34;100.00
22580;BME280;11456;47.030;15.396;2023-10-09T02:39:40;98404.00;;;13.09;100.00
22580;BME280;11456;47.030;15.396;2023-10-09T02:42:14;98396.88;;;13.17;100.00
22580;BME280;11456;47.030;15.396;2023-10-09T02:44:41;98393.72;;;13.22;100.00
22580;BME280;11456;47.030;15.396;2023-10-09T02:47:20;98400.31;;;13.10;100.00
22580;BME280;11456;47.030;15.396;2023-10-09T02:49:48;98406.53;;;13.20;100.00
22580;BME280;11456;47.030;15.396;2023-10-09T02:52:15;98395.44;;;13.23;100.00
22580;BME280;11456;47.030;15.396;2023-10-09T02:54:45;98398.88;;;13.15;100.00
22580;BME280;11456;47.030;15.396;2023-10-09T02:57:13;98399.19;;;13.03;100.00
22580;BME280;11456;47.030;15.396;2023-10-09T02:59:50;98391.13;;;13.30;100.00
22580;BME280;11456;47.030;15.396;2023-10-09T03:02:20;98391.41;;;13.27;100.00
22580;BME280;11456;47.030;15.396;2023-10-09T03:04:47;98394.63;;;13.13;100.00
22580;BME280;11456;47.030;15.396;2023-10-09T03:07:14;98388.59;;;13.19;100.00
22580;BME280;11456;47.030;15.396;2023-10-09T03:09:41;98387.09;;;13.34;100.00
22580;BME280;11456;47.030;15.396;2023-10-09T03:12:08;98382.38;;;13.18;100.00
22580;BME280;11456;47.030;15.396;2023-10-09T03:14:40;98384.59;;;13.23;100.00
22580;BME280;11456;47.030;15.396;2023-10-09T03:17:08;98387.50;;;13.12;100.00
22580;BME280;11456;47.030;15.396;2023-10-09T03:19:39;98384.97;;;13.01;100.00
22580;BME280;11456;47.030;15.396;2023-10-09T03:22:07;98379.13;;;13.33;100.00
22580;BME280;11456;47.030;15.396;2023-10-09T03:24:38;98387.50;;;13.39;100.00
22580;BME280;11456;47.030;15.396;2023-10-09T03:27:08;98367.28;;;13.06;100.00
22580;BME280;11456;47.030;15.396;2023-10-09T03:29:35;98366.50;;;12.96;100.00
22580;BME280;11456;47.030;15.396;2023-10-09T03:32:03;98368.75;;;13.01;100.00
22580;BME280;11456;47.030;15.396;2023-10-09T03:34:30;98361.56;;;12.92;100.00
22580;BME280;11456;47.030;15.396;2023-10-09T03:36:57;98356.22;;;13.00;100.00
22580;BME280;11456;47.030;15.396;2023-10-09T03:39:47;98359.34;;;12.68;100.00
22580;BME280;11456;47.030;15.396;2023-10-09T03:42:14;98357.09;;;12.63;100.00
22580;BME280;11456;47.030;15.396;2023-10-09T03:44:49;98356.56;;;12.60;100.00
22580;BME280;11456;47.030;15.396;2023-10-09T03:47:20;98344.25;;;12.48;100.00
22580;BME280;11456;47.030;15.396;2023-10-09T03:49:51;98345.66;;;12.42;100.00
22580;BME280;11456;47.030;15.396;2023-10-09T03:52:19;98348.81;;;12.37;100.00
22580;BME280;11456;47.030;15.396;2023-10-09T03:54:46;98342.59;;;12.18;100.00
22580;BME280;11456;47.030;15.396;2023-10-09T03:57:13;98335.78;;;12.14;100.00
22580;BME280;11456;47.030;15.396;2023-10-09T03:59:47;98333.56;;;11.80;100.00
22580;BME280;11456;47.030;15.396;2023-10-09T04:02:14;98332.97;;;11.67;100.00
22580;BME280;11456;47.030;15.396;2023-10-09T04:04:42;98341.69;;;11.90;100.00
22580;BME280;11456;47.030;15.396;2023-10-09T04:07:14;98325.03;;;11.94;100.00
22580;BME280;11456;47.030;15.396;2023-10-09T04:09:43;98340.81;;;11.70;100.00
22580;BME280;11456;47.030;15.396;2023-10-09T04:12:29;98324.47;;;11.62;100.00
22580;BME280;11456;47.030;15.396;2023-10-09T04:14:57;98309.41;;;11.50;100.00
22580;BME280;11456;47.030;15.396;2023-10-09T04:17:27;98315.94;;;11.57;100.00
22580;BME280;11456;47.030;15.396;2023-10-09T04:20:02;98307.97;;;11.46;100.00
22580;BME280;11456;47.030;15.396;2023-10-09T04:22:45;98302.31;;;11.49;100.00
22580;BME280;11456;47.030;15.396;2023-10-09T04:25:21;98297.06;;;11.38;100.00
22580;BME280;11456;47.030;15.396;2023-10-09T04:28:10;98300.00;;;10.96;100.00
22580;BME280;11456;47.030;15.396;2023-10-09T04:30:46;98291.50;;;11.10;100.00
22580;BME280;11456;47.030;15.396;2023-10-09T04:33:14;98285.84;;;11.13;100.00
22580;BME280;11456;47.030;15.396;2023-10-09T04:36:03;98281.31;;;11.23;100.00
22580;BME280;11456;47.030;15.396;2023-10-09T04:38:48;98288.66;;;11.21;100.00
22580;BME280;11456;47.030;15.396;2023-10-09T04:41:31;98280.75;;;11.39;100.00
22580;BME280;11456;47.030;15.396;2023-10-09T04:44:21;98269.94;;;11.30;100.00
22580;BME280;11456;47.030;15.396;2023-10-09T04:46:56;98276.47;;;10.98;100.00
22580;BME280;11456;47.030;15.396;2023-10-09T04:49:41;98280.00;;;11.08;100.00
22580;BME280;11456;47.030;15.396;2023-10-09T04:52:23;98278.44;;;10.96;100.00
22580;BME280;11456;47.030;15.396;2023-10-09T04:54:56;98274.97;;;10.65;100.00
22580;BME280;11456;47.030;15.396;2023-10-09T04:57:36;98274.28;;;10.82;100.00
22580;BME280;11456;47.030;15.396;2023-10-09T05:00:15;98261.94;;;10.61;100.00
22580;BME280;11456;47.030;15.396;2023-10-09T05:02:55;98246.06;;;10.67;100.00
22580;BME280;11456;47.030;15.396;2023-10-09T05:05:25;98265.09;;;10.85;100.00
22580;BME280;11456;47.030;15.396;2023-10-09T05:11:03;98242.41;;;10.88;100.00
22580;BME280;11456;47.030;15.396;2023-10-09T05:13:32;98252.34;;;10.97;100.00
22580;BME280;11456;47.030;15.396;2023-10-09T05:16:15;98260.25;;;10.79;100.00
22580;BME280;11456;47.030;15.396;2023-10-09T05:18:46;98237.38;;;10.64;100.00
22580;BME280;11456;47.030;15.396;2023-10-09T05:21:24;98217.56;;;10.84;100.00
22580;BME280;11456;47.030;15.396;2023-10-09T05:24:01;98226.81;;;10.91;100.00
22580;BME280;11456;47.030;15.396;2023-10-09T05:26:46;98230.22;;;10.93;100.00
22580;BME280;11456;47.030;15.396;2023-10-09T05:29:19;98220.59;;;11.19;100.00
22580;BME280;11456;47.030;15.396;2023-10-09T05:31:51;98222.84;;;11.05;100.00
22580;BME280;11456;47.030;15.396;2023-10-09T05:34:34;98222.56;;;10.98;100.00
22580;BME280;11456;47.030;15.396;2023-10-09T05:37:02;98225.41;;;11.06;100.00
22580;BME280;11456;47.030;15.396;2023-10-09T05:39:44;98227.66;;;11.01;100.00
22580;BME280;11456;47.030;15.396;2023-10-09T05:42:24;98222.25;;;10.82;100.00
22580;BME280;11456;47.030;15.396;2023-10-09T05:45:17;98213.19;;;11.02;100.00
22580;BME280;11456;47.030;15.396;2023-10-09T05:47:50;98204.97;;;10.94;100.00
22580;BME280;11456;47.030;15.396;2023-10-09T05:50:21;98202.56;;;10.91;100.00
22580;BME280;11456;47.030;15.396;2023-10-09T05:52:52;98214.06;;;10.93;100.00
22580;BME280;11456;47.030;15.396;2023-10-09T05:55:20;98212.06;;;11.24;100.00
22580;BME280;11456;47.030;15.396;2023-10-09T05:58:06;98208.66;;;11.32;100.00
22580;BME280;11456;47.030;15.396;2023-10-09T06:00:35;98201.81;;;11.27;100.00
22580;BME280;11456;47.030;15.396;2023-10-09T06:03:21;98204.63;;;11.55;100.00
22580;BME280;11456;47.030;15.396;2023-10-09T06:05:53;98184.06;;;11.44;100.00
22580;BME280;11456;47.030;15.396;2023-10-09T06:08:24;98193.16;;;11.43;100.00
22580;BME280;11456;47.030;15.396;2023-10-09T06:10:53;98188.47;;;11.45;100.00
22580;BME280;11456;47.030;15.396;2023-10-09T06:13:33;98204.63;;;11.55;100.00
22580;BME280;11456;47.030;15.396;2023-10-09T06:16:12;98205.16;;;11.87;100.00
22580;BME280;11456;47.030;15.396;2023-10-09T06:18:58;98190.84;;;12.14;100.00
22580;BME280;11456;47.030;15.396;2023-10-09T06:21:45;98196.88;;;11.98;100.00
22580;BME280;11456;47.030;15.396;2023-10-09T06:24:30;98202.56;;;12.23;100.00
22580;BME280;11456;47.030;15.396;2023-10-09T06:27:09;98204.72;;;12.29;100.00
22580;BME280;11456;47.030;15.396;2023-10-09T06:29:40;98192.34;;;12.26;100.00
22580;BME280;11456;47.030;15.396;2023-10-09T06:32:11;98191.22;;;12.29;100.00
22580;BME280;11456;47.030;15.396;2023-10-09T06:34:56;98182.91;;;12.58;100.00
22580;BME280;11456;47.030;15.396;2023-10-09T06:37:23;98182.78;;;12.59;100.00
22580;BME280;11456;47.030;15.396;2023-10-09T06:42:36;98172.47;;;12.45;100.00
22580;BME280;11456;47.030;15.396;2023-10-09T06:45:10;98168.19;;;12.88;100.00
22580;BME280;11456;47.030;15.396;2023-10-09T06:47:42;98170.50;;;12.82;100.00
22580;BME280;11456;47.030;15.396;2023-10-09T06:50:12;98171.69;;;13.15;100.00
22580;BME280;11456;47.030;15.396;2023-10-09T06:52:52;98161.22;;;13.38;100.00
22580;BME280;11456;47.030;15.396;2023-10-09T06:55:52;98161.88;;;13.58;100.00
22580;BME280;11456;47.030;15.396;2023-10-09T06:58:19;98150.56;;;14.22;100.00
22580;BME280;11456;47.030;15.396;2023-10-09T07:00:52;98153.34;;;14.04;100.00
22580;BME280;11456;47.030;15.396;2023-10-09T07:03:25;98143.63;;;14.28;99.03
22580;BME280;11456;47.030;15.396;2023-10-09T07:06:09;98146.28;;;14.46;99.86
22580;BME280;11456;47.030;15.396;2023-10-09T07:08:56;98145.47;;;14.61;96.73
22580;BME280;11456;47.030;15.396;2023-10-09T07:11:35;98141.59;;;14.64;91.61
22580;BME280;11456;47.030;15.396;2023-10-09T07:17:10;98124.31;;;15.38;88.59
22580;BME280;11456;47.030;15.396;2023-10-09T07:19:49;98120.63;;;15.14;87.94
22580;BME280;11456;47.030;15.396;2023-10-09T07:22:17;98111.94;;;14.70;88.36
22580;BME280;11456;47.030;15.396;2023-10-09T07:24:51;98107.06;;;15.14;83.84
22580;BME280;11456;47.030;15.396;2023-10-09T07:27:29;98106.38;;;15.12;83.91
22580;BME280;11456;47.030;15.396;2023-10-09T07:30:28;98107.59;;;15.97;79.94
22580;BME280;11456;47.030;15.396;2023-10-09T07:33:00;98099.84;;;15.78;85.23
22580;BME280;11456;47.030;15.396;2023-10-09T07:35:43;98092.19;;;15.82;81.66
22580;BME280;11456;47.030;15.396;2023-10-09T07:38:15;98095.13;;;15.64;84.04
22580;BME280;11456;47.030;15.396;2023-10-09T07:40:50;98080.78;;;15.94;81.94
22580;BME280;11456;47.030;15.396;2023-10-09T07:43:33;98086.66;;;15.43;84.64
22580;BME280;11456;47.030;15.396;2023-10-09T07:46:07;98070.53;;;15.49;85.30
22580;BME280;11456;47.030;15.396;2023-10-09T07:48:53;98066.66;;;15.60;83.23
22580;BME280;11456;47.030;15.396;2023-10-09T07:51:21;98064.34;;;15.08;88.73
22580;BME280;11456;47.030;15.396;2023-10-09T07:54:01;98066.31;;;15.31;89.82
22580;BME280;11456;47.030;15.396;2023-10-09T07:56:34;98067.38;;;15.30;89.85
22580;BME280;11456;47.030;15.396;2023-10-09T07:59:14;98073.13;;;15.35;91.03
22580;BME280;11456;47.030;15.396;2023-10-09T08:01:42;98066.38;;;16.64;81.67
22580;BME280;11456;47.030;15.396;2023-10-09T08:04:26;98061.63;;;16.80;73.11
22580;BME280;11456;47.030;15.396;2023-10-09T08:07:11;98057.47;;;16.39;78.07
22580;BME280;11456;47.030;15.396;2023-10-09T08:10:27;98048.72;;;16.82;77.29
22580;BME280;11456;47.030;15.396;2023-10-09T08:12:59;98055.50;;;17.39;75.53
22580;BME280;11456;47.030;15.396;2023-10-09T08:15:47;98050.00;;;17.61;75.23
22580;BME280;11456;47.030;15.396;2023-10-09T08:18:21;98045.50;;;17.69;77.06
22580;BME280;11456;47.030;15.396;2023-10-09T08:20:58;98024.84;;;17.89;70.94
22580;BME280;11456;47.030;15.396;2023-10-09T08:23:25;98007.69;;;17.07;75.68
22580;BME280;11456;47.030;15.396;2023-10-09T08:26:16;98018.41;;;17.23;74.38
22580;BME280;11456;47.030;15.396;2023-10-09T08:28:56;98031.25;;;15.84;87.42
22580;BME280;11456;47.030;15.396;2023-10-09T08:31:42;98018.50;;;16.24;86.74
22580;BME280;11456;47.030;15.396;2023-10-09T08:34:13;98020.69;;;17.34;80.66
22580;BME280;11456;47.030;15.396;2023-10-09T08:36:55;98016.78;;;17.66;76.04
22580;BME280;11456;47.030;15.396;2023-10-09T08:39:22;98021.97;;;17.09;77.32
22580;BME280;11456;47.030;15.396;2023-10-09T08:41:55;98004.34;;;16.97;79.59
22580;BME280;11456;47.030;15.396;2023-10-09T08:44:25;98009.59;;;17.50;78.90
22580;BME280;11456;47.030;15.396;2023-10-09T08:46:59;97998.84;;;17.05;79.44
22580;BME280;11456;47.030;15.396;2023-10-09T08:49:26;98002.97;;;17.01;77.35
22580;BME280;11456;47.030;15.396;2023-10-09T08:51:55;97998.25;;;18.27;73.31
22580;BME280;11456;47.030;15.396;2023-10-09T08:54:22;97998.81;;;18.37;70.50
22580;BME280;11456;47.030;15.396;2023-10-09T08:56:49;97998.06;;;18.28;71.79
22580;BME280;11456;47.030;15.396;2023-10-09T08:59:18;97994.97;;;17.51;74.05
22580;BME280;11456;47.030;15.396;2023-10-09T09:01:49;97991.03;;;17.69;71.79
22580;BME280;11456;47.030;15.396;2023-10-09T09:04:37;97990.81;;;17.26;76.04
22580;BME280;11456;47.030;15.396;2023-10-09T09:07:25;97984.16;;;17.87;77.51
22580;BME280;11456;47.030;15.396;2023-10-09T09:09:57;97975.94;;;17.66;73.26
22580;BME280;11456;47.030;15.396;2023-10-09T09:12:24;97967.34;;;18.56;68.62
22580;BME280;11456;47.030;15.396;2023-10-09T09:14:50;97995.09;;;17.06;78.94
22580;BME280;11456;47.030;15.396;2023-10-09T09:17:32;97980.63;;;18.08;73.68
22580;BME280;11456;47.030;15.396;2023-10-09T09:19:59;97966.56;;;18.26;71.03
22580;BME280;11456;47.030;15.396;2023-10-09T09:22:26;97969.41;;;18.54;70.29
22580;BME280;11456;47.030;15.396;2023-10-09T09:24:58;97969.22;;;17.98;71.26
22580;BME280;11456;47.030;15.396;2023-10-09T09:27:45;97958.00;;;17.93;72.57
22580;BME280;11456;47.030;15.396;2023-10-09T09:30:23;97967.44;;;17.17;79.07
22580;BME280;11456;47.030;15.396;2023-10-09T09:32:50;97964.34;;;17.49;77.57
22580;BME280;11456;47.030;15.396;2023-10-09T09:35:36;97961.13;;;17.02;80.83
22580;BME280;11456;47.030;15.396;2023-10-09T09:38:03;97954.56;;;17.55;75.86
22580;BME280;11456;47.030;15.396;2023-10-09T09:40:33;97962.81;;;17.03;78.96
22580;BME280;11456;47.030;15.396;2023-10-09T09:43:08;97963.59;;;17.85;77.32
22580;BME280;11456;47.030;15.396;2023-10-09T09:45:48;97954.84;;;17.16;86.00
22580;BME280;11456;47.030;15.396;2023-10-09T09:48:17;97954.44;;;18.28;81.17
22580;BME280;11456;47.030;15.396;2023-10-09T09:50:44;97951.00;;;18.56;74.25
22580;BME280;11456;47.030;15.396;2023-10-09T09:53:13;97950.97;;;17.98;76.24
22580;BME280;11456;47.030;15.396;2023-10-09T09:55:54;97938.41;;;16.95;84.73
22580;BME280;11456;47.030;15.396;2023-10-09T09:58:25;97948.88;;;16.68;86.67
22580;BME280;11456;47.030;15.396;2023-10-09T10:01:00;97933.19;;;17.67;85.47
22580;BME280;11456;47.030;15.396;2023-10-09T10:03:34;97931.59;;;18.08;82.89
22580;BME280;11456;47.030;15.396;2023-10-09T10:06:04;97929.66;;;17.87;83.73
22580;BME280;11456;47.030;15.396;2023-10-09T10:08:36;97929.78;;;17.35;89.47
22580;BME280;11456;47.030;15.396;2023-10-09T10:11:05;97916.94;;;19.35;75.29
22580;BME280;11456;47.030;15.396;2023-10-09T10:16:12;97916.38;;;19.87;69.07
22580;BME280;11456;47.030;15.396;2023-10-09T10:21:48;97923.00;;;20.19;65.90
22580;BME280;11456;47.030;15.396;2023-10-09T10:29:47;97912.53;;;20.36;66.60
22580;BME280;11456;47.030;15.396;2023-10-09T10:32:16;97897.34;;;20.27;68.23
22580;BME280;11456;47.030;15.396;2023-10-09T10:37:38;97890.84;;;21.07;63.31
22580;BME280;11456;47.030;15.396;2023-10-09T10:40:24;97890.06;;;20.87;61.59
22580;BME280;11456;47.030;15.396;2023-10-09T10:43:07;97882.03;;;21.05;58.71
22580;BME280;11456;47.030;15.396;2023-10-09T10:45:40;97892.66;;;19.94;68.96
22580;BME280;11456;47.030;15.396;2023-10-09T10:48:12;97875.72;;;20.65;68.95
22580;BME280;11456;47.030;15.396;2023-10-09T10:50:56;97858.69;;;21.67;58.23
22580;BME280;11456;47.030;15.396;2023-10-09T10:53:24;97861.59;;;22.48;56.17
22580;BME280;11456;47.030;15.396;2023-10-09T10:55:58;97869.09;;;22.34;56.46
22580;BME280;11456;47.030;15.396;2023-10-09T10:58:33;97853.41;;;23.34;51.64
22580;BME280;11456;47.030;15.396;2023-10-09T11:01:02;97864.59;;;20.47;66.54
22580;BME280;11456;47.030;15.396;2023-10-09T11:03:42;97845.56;;;22.20;56.56
22580;BME280;11456;47.030;15.396;2023-10-09T11:06:28;97835.88;;;22.67;55.72
22580;BME280;11456;47.030;15.396;2023-10-09T11:09:08;97842.75;;;21.50;58.91
22580;BME280;11456;47.030;15.396;2023-10-09T11:11:50;97827.91;;;23.08;52.86
22580;BME280;11456;47.030;15.396;2023-10-09T11:14:21;97828.84;;;22.53;55.98
22580;BME280;11456;47.030;15.396;2023-10-09T11:16:50;97840.75;;;23.69;52.88
22580;BME280;11456;47.030;15.396;2023-10-09T11:19:21;97829.78;;;22.90;52.13
22580;BME280;11456;47.030;15.396;2023-10-09T11:21:55;97813.94;;;23.46;50.98
22580;BME280;11456;47.030;15.396;2023-10-09T11:24:48;97810.59;;;23.63;48.69
22580;BME280;11456;47.030;15.396;2023-10-09T11:27:36;97806.16;;;24.74;46.66
22580;BME280;11456;47.030;15.396;2023-10-09T11:30:06;97815.88;;;24.24;48.61
22580;BME280;11456;47.030;15.396;2023-10-09T11:32:38;97811.38;;;23.81;51.14
22580;BME280;11456;47.030;15.396;2023-10-09T11:35:13;97809.16;;;23.24;51.12
22580;BME280;11456;47.030;15.396;2023-10-09T11:37:57;97794.97;;;24.05;49.56
22580;BME280;11456;47.030;15.396;2023-10-09T11:40:28;97791.81;;;23.89;48.17
22580;BME280;11456;47.030;15.396;2023-10-09T11:43:00;97800.44;;;24.23;47.12
22580;BME280;11456;47.030;15.396;2023-10-09T11:45:29;97799.75;;;23.97;48.93
22580;BME280;11456;47.030;15.396;2023-10-09T11:47:58;97798.88;;;24.27;49.03
22580;BME280;11456;47.030;15.396;2023-10-09T11:50:48;97785.66;;;24.59;48.34
22580;BME280;11456;47.030;15.396;2023-10-09T11:53:19;97783.25;;;23.31;49.13
22580;BME280;11456;47.030;15.396;2023-10-09T11:55:49;97784.88;;;21.14;62.42
22580;BME280;11456;47.030;15.396;2023-10-09T11:58:16;97785.50;;;23.23;52.72
22580;BME280;11456;47.030;15.396;2023-10-09T12:00:56;97779.50;;;23.44;52.33
22580;BME280;11456;47.030;15.396;2023-10-09T12:03:26;97780.50;;;23.13;49.96
22580;BME280;11456;47.030;15.396;2023-10-09T12:05:58;97781.56;;;23.96;49.44
22580;BME280;11456;47.030;15.396;2023-10-09T12:08:31;97789.19;;;23.94;48.64
22580;BME280;11456;47.030;15.396;2023-10-09T12:10:58;97781.69;;;24.43;46.04
22580;BME280;11456;47.030;15.396;2023-10-09T12:13:25;97778.94;;;24.43;45.24
22580;BME280;11456;47.030;15.396;2023-10-09T12:15:52;97779.44;;;24.10;47.15
22580;BME280;11456;47.030;15.396;2023-10-09T12:18:20;97774.16;;;22.76;53.01
22580;BME280;11456;47.030;15.396;2023-10-09T12:20:48;97763.06;;;21.45;57.94
22580;BME280;11456;47.030;15.396;2023-10-09T12:23:19;97786.69;;;22.40;60.03
22580;BME280;11456;47.030;15.396;2023-10-09T12:25:48;97760.13;;;23.57;51.59
22580;BME280;11456;47.030;15.396;2023-10-09T12:28:15;97765.09;;;24.96;46.07
22580;BME280;11456;47.030;15.396;2023-10-09T12:30:47;97770.53;;;25.31;44.87
22580;BME280;11456;47.030;15.396;2023-10-09T12:33:19;97764.59;;;24.76;44.99
22580;BME280;11456;47.030;15.396;2023-10-09T12:35:46;97759.44;;;24.91;45.39
22580;BME280;11456;47.030;15.396;2023-10-09T12:38:14;97760.75;;;24.89;43.47
22580;BME280;11456;47.030;15.396;2023-10-09T12:40:45;97762.53;;;24.48;48.83
22580;BME280;11456;47.030;15.396;2023-10-09T12:43:20;97761.13;;;24.81;46.60
22580;BME280;11456;47.030;15.396;2023-10-09T12:45:48;97771.50;;;25.77;43.82
22580;BME280;11456;47.030;15.396;2023-10-09T12:48:15;97751.22;;;22.89;52.48
22580;BME280;11456;47.030;15.396;2023-10-09T12:50:42;97752.97;;;24.86;47.50
22580;BME280;11456;47.030;15.396;2023-10-09T12:53:08;97753.66;;;25.16;44.48
22580;BME280;11456;47.030;15.396;2023-10-09T12:55:39;97756.28;;;25.34;44.91
22580;BME280;11456;47.030;15.396;2023-10-09T12:58:10;97753.09;;;25.66;41.76
22580;BME280;11456;47.030;15.396;2023-10-09T13:00:41;97739.31;;;24.67;45.91
22580;BME280;11456;47.030;15.396;2023-10-09T13:03:16;97737.41;;;24.56;45.82
22580;BME280;11456;47.030;15.396;2023-10-09T13:05:52;97735.75;;;25.02;44.10
22580;BME280;11456;47.030;15.396;2023-10-09T13:08:21;97740.31;;;24.08;47.57
22580;BME280;11456;47.030;15.396;2023-10-09T13:10:49;97742.44;;;24.36;45.93
22580;BME280;11456;47.030;15.396;2023-10-09T13:13:29;97742.31;;;24.19;48.40
22580;BME280;11456;47.030;15.396;2023-10-09T13:16:07;97743.38;;;24.53;46.34
22580;BME280;11456;47.030;15.396;2023-10-09T13:18:34;97740.75;;;24.58;46.35
22580;BME280;11456;47.030;15.396;2023-10-09T13:21:01;97741.06;;;23.74;46.90
22580;BME280;11456;47.030;15.396;2023-10-09T13:23:31;97740.34;;;23.30;49.25
22580;BME280;11456;47.030;15.396;2023-10-09T13:26:06;97731.91;;;23.13;50.82
22580;BME280;11456;47.030;15.396;2023-10-09T13:28:59;97735.97;;;22.00;55.13
22580;BME280;11456;47.030;15.396;2023-10-09T13:31:26;97744.03;;;23.42;49.97
22580;BME280;11456;47.030;15.396;2023-10-09T13:33:54;97737.13;;;23.81;48.93
22580;BME280;11456;47.030;15.396;2023-10-09T13:36:25;97748.28;;;23.86;48.43
22580;BME280;11456;47.030;15.396;2023-10-09T13:39:06;97740.34;;;23.78;49.06
22580;BME280;11456;47.030;15.396;2023-10-09T13:41:56;97729.06;;;23.98;48.78
22580;BME280;11456;47.030;15.396;2023-10-09T13:44:31;97734.22;;;23.65;49.75
22580;BME280;11456;47.030;15.396;2023-10-09T13:47:00;97735.78;;;23.72;50.01